Golden Iris — 3FZK4 — position and weather

sailwx.info

Track history (hours):
 
Tides and Currents Weather Stations Pressure Air Temp Water Temp Dewpoint Dewpoint Depression Visibility Wind Speed Wind Dir Waves Ship Positions

Golden Iris

Last reported at 2014-Oct-31 14:31 UTC. Time now 2014-Nov-01 08:25 UTC.
Position N 32°55' E 034°37'.

Length 180 m; draft 6 m.

Type: Passenger vessel. MMSI: 371771000.

Date/timePositionNaut miles runAvg speedWind from/ knotsBaromVisibWave heightAir tempDewpointWater temp
2014-Oct-31 14:31N 32°55' E 034°37'10 9.1
2014-Oct-31 13:24N 32°54' E 034°49'6 0.7
2014-Oct-31 04:28N 32°52' E 034°56'1111.6
2014-Oct-31 03:32N 32°54' E 034°43'46712.0
2014-Oct-29 12:27N 35°12' E 025°45'  
2014-Oct-21 20:33N 36°37' E 021°45'1615.3
2014-Oct-21 19:31N 36°28' E 022°02'1715.0
2014-Oct-21 18:23N 36°19' E 022°19'2714.6
2014-Oct-21 16:33N 36°05' E 022°48'1514.6
2014-Oct-21 15:32N 35°57' E 023°03'1514.8
2014-Oct-21 14:32N 35°49' E 023°18'  
Track history (hours):
 
Tides and Currents Weather Stations Pressure Air Temp Water Temp Dewpoint Dewpoint Depression Visibility Wind Speed Wind Dir Waves Ship Positions

Golden Iris

Last reported at 2014-Oct-31 14:31 UTC. Time now 2014-Nov-01 08:25 UTC.
Position N 32°55' E 034°37'.

Length 180 m; draft 6 m.

Type: Passenger vessel. MMSI: 371771000.

Date/timePositionNaut miles runAvg speedWind from/ knotsBaromVisibWave heightAir tempDewpointWater temp
2014-Oct-31 14:31N 32°55' E 034°37'10 9.1
2014-Oct-31 13:24N 32°54' E 034°49'6 0.7
2014-Oct-31 04:28N 32°52' E 034°56'1111.6
2014-Oct-31 03:32N 32°54' E 034°43'46712.0
2014-Oct-29 12:27N 35°12' E 025°45'  
2014-Oct-21 20:33N 36°37' E 021°45'1615.3
2014-Oct-21 19:31N 36°28' E 022°02'1715.0
2014-Oct-21 18:23N 36°19' E 022°19'2714.6
2014-Oct-21 16:33N 36°05' E 022°48'1514.6
2014-Oct-21 15:32N 35°57' E 023°03'1514.8
2014-Oct-21 14:32N 35°49' E 023°18'  

Dump ship's entire track history